sensor_id;sensor_type;location;lat;lon;timestamp;P1;durP1;ratioP1;P2;durP2;ratioP2
21281;SDS011;10800;53.096;18.328;2023-03-22T00:01:08;32.93;;;13.40;;
21281;SDS011;10800;53.096;18.328;2023-03-22T00:06:15;36.93;;;14.20;;
21281;SDS011;10800;53.096;18.328;2023-03-22T00:11:22;32.43;;;13.53;;
21281;SDS011;10800;53.096;18.328;2023-03-22T00:16:28;37.23;;;12.90;;
21281;SDS011;10800;53.096;18.328;2023-03-22T00:21:33;31.13;;;12.53;;
21281;SDS011;10800;53.096;18.328;2023-03-22T00:26:38;36.47;;;14.03;;
21281;SDS011;10800;53.096;18.328;2023-03-22T00:31:44;33.53;;;12.83;;
21281;SDS011;10800;53.096;18.328;2023-03-22T00:36:49;32.70;;;12.10;;
21281;SDS011;10800;53.096;18.328;2023-03-22T00:41:54;30.47;;;11.80;;
21281;SDS011;10800;53.096;18.328;2023-03-22T00:46:59;28.93;;;10.97;;
21281;SDS011;10800;53.096;18.328;2023-03-22T00:52:05;29.07;;;11.97;;
21281;SDS011;10800;53.096;18.328;2023-03-22T00:57:10;29.43;;;12.03;;
21281;SDS011;10800;53.096;18.328;2023-03-22T01:02:16;32.60;;;13.87;;
21281;SDS011;10800;53.096;18.328;2023-03-22T01:07:21;33.00;;;12.27;;
21281;SDS011;10800;53.096;18.328;2023-03-22T01:12:27;32.10;;;13.30;;
21281;SDS011;10800;53.096;18.328;2023-03-22T01:17:32;37.60;;;14.13;;
21281;SDS011;10800;53.096;18.328;2023-03-22T01:22:37;30.77;;;13.00;;
21281;SDS011;10800;53.096;18.328;2023-03-22T01:27:42;41.50;;;12.63;;
21281;SDS011;10800;53.096;18.328;2023-03-22T01:32:48;29.20;;;12.10;;
21281;SDS011;10800;53.096;18.328;2023-03-22T01:37:53;33.13;;;13.17;;
21281;SDS011;10800;53.096;18.328;2023-03-22T01:42:58;38.10;;;14.43;;
21281;SDS011;10800;53.096;18.328;2023-03-22T01:48:05;38.80;;;13.77;;
21281;SDS011;10800;53.096;18.328;2023-03-22T01:53:17;27.33;;;13.00;;
21281;SDS011;10800;53.096;18.328;2023-03-22T01:58:24;30.70;;;12.90;;
21281;SDS011;10800;53.096;18.328;2023-03-22T02:03:37;28.30;;;12.37;;
21281;SDS011;10800;53.096;18.328;2023-03-22T02:08:50;27.57;;;12.47;;
21281;SDS011;10800;53.096;18.328;2023-03-22T02:14:00;34.77;;;12.27;;
21281;SDS011;10800;53.096;18.328;2023-03-22T02:19:16;37.07;;;13.37;;
21281;SDS011;10800;53.096;18.328;2023-03-22T02:35:45;29.50;;;12.27;;
21281;SDS011;10800;53.096;18.328;2023-03-22T02:41:04;31.07;;;12.83;;
21281;SDS011;10800;53.096;18.328;2023-03-22T02:46:32;28.67;;;12.50;;
21281;SDS011;10800;53.096;18.328;2023-03-22T02:51:43;23.43;;;12.27;;
21281;SDS011;10800;53.096;18.328;2023-03-22T02:56:59;35.97;;;14.23;;
21281;SDS011;10800;53.096;18.328;2023-03-22T03:02:02;34.80;;;15.27;;
21281;SDS011;10800;53.096;18.328;2023-03-22T03:07:10;28.70;;;12.00;;
21281;SDS011;10800;53.096;18.328;2023-03-22T03:12:18;30.77;;;13.57;;
21281;SDS011;10800;53.096;18.328;2023-03-22T03:22:57;38.73;;;13.80;;
21281;SDS011;10800;53.096;18.328;2023-03-22T03:28:12;34.37;;;13.57;;
21281;SDS011;10800;53.096;18.328;2023-03-22T03:33:35;33.50;;;14.30;;
21281;SDS011;10800;53.096;18.328;2023-03-22T03:38:44;41.60;;;14.87;;
21281;SDS011;10800;53.096;18.328;2023-03-22T03:43:51;37.53;;;13.50;;
21281;SDS011;10800;53.096;18.328;2023-03-22T03:48:58;33.90;;;13.90;;
21281;SDS011;10800;53.096;18.328;2023-03-22T03:54:05;38.10;;;15.03;;
21281;SDS011;10800;53.096;18.328;2023-03-22T03:59:10;43.67;;;15.77;;
21281;SDS011;10800;53.096;18.328;2023-03-22T04:04:18;34.90;;;14.07;;
21281;SDS011;10800;53.096;18.328;2023-03-22T04:09:28;34.80;;;14.77;;
21281;SDS011;10800;53.096;18.328;2023-03-22T04:14:35;40.87;;;15.30;;
21281;SDS011;10800;53.096;18.328;2023-03-22T04:19:41;34.70;;;13.87;;
21281;SDS011;10800;53.096;18.328;2023-03-22T04:24:48;34.40;;;14.00;;
21281;SDS011;10800;53.096;18.328;2023-03-22T04:29:54;39.83;;;15.30;;
21281;SDS011;10800;53.096;18.328;2023-03-22T04:35:00;40.87;;;15.47;;
21281;SDS011;10800;53.096;18.328;2023-03-22T04:40:05;28.37;;;12.20;;
21281;SDS011;10800;53.096;18.328;2023-03-22T04:45:12;32.73;;;13.00;;
21281;SDS011;10800;53.096;18.328;2023-03-22T04:50:17;37.63;;;13.70;;
21281;SDS011;10800;53.096;18.328;2023-03-22T04:55:23;32.90;;;13.07;;
21281;SDS011;10800;53.096;18.328;2023-03-22T05:00:29;39.30;;;15.00;;
21281;SDS011;10800;53.096;18.328;2023-03-22T05:05:37;35.07;;;14.27;;
21281;SDS011;10800;53.096;18.328;2023-03-22T05:10:42;38.03;;;14.70;;
21281;SDS011;10800;53.096;18.328;2023-03-22T05:15:47;41.73;;;14.57;;
21281;SDS011;10800;53.096;18.328;2023-03-22T05:20:54;40.87;;;15.10;;
21281;SDS011;10800;53.096;18.328;2023-03-22T05:26:00;34.07;;;13.60;;
21281;SDS011;10800;53.096;18.328;2023-03-22T05:31:06;41.20;;;16.17;;
21281;SDS011;10800;53.096;18.328;2023-03-22T05:36:14;42.57;;;16.27;;
21281;SDS011;10800;53.096;18.328;2023-03-22T05:41:19;37.57;;;16.03;;
21281;SDS011;10800;53.096;18.328;2023-03-22T05:46:25;40.53;;;16.40;;
21281;SDS011;10800;53.096;18.328;2023-03-22T05:51:30;38.13;;;15.90;;
21281;SDS011;10800;53.096;18.328;2023-03-22T05:56:36;32.63;;;14.30;;
21281;SDS011;10800;53.096;18.328;2023-03-22T06:01:42;40.57;;;16.53;;
21281;SDS011;10800;53.096;18.328;2023-03-22T06:06:47;36.80;;;15.70;;
21281;SDS011;10800;53.096;18.328;2023-03-22T06:11:53;47.10;;;17.73;;
21281;SDS011;10800;53.096;18.328;2023-03-22T06:16:58;38.37;;;16.23;;
21281;SDS011;10800;53.096;18.328;2023-03-22T06:22:03;42.03;;;15.53;;
21281;SDS011;10800;53.096;18.328;2023-03-22T06:27:08;39.27;;;16.40;;
21281;SDS011;10800;53.096;18.328;2023-03-22T06:32:14;35.10;;;16.13;;
21281;SDS011;10800;53.096;18.328;2023-03-22T06:37:20;42.93;;;15.63;;
21281;SDS011;10800;53.096;18.328;2023-03-22T06:42:26;40.43;;;15.67;;
21281;SDS011;10800;53.096;18.328;2023-03-22T06:47:33;43.07;;;16.90;;
21281;SDS011;10800;53.096;18.328;2023-03-22T06:52:38;40.37;;;15.77;;
21281;SDS011;10800;53.096;18.328;2023-03-22T06:57:44;46.13;;;15.07;;
21281;SDS011;10800;53.096;18.328;2023-03-22T07:02:49;42.20;;;15.67;;
21281;SDS011;10800;53.096;18.328;2023-03-22T07:07:55;43.47;;;15.77;;
21281;SDS011;10800;53.096;18.328;2023-03-22T07:13:00;44.10;;;17.57;;
21281;SDS011;10800;53.096;18.328;2023-03-22T07:18:06;38.83;;;15.03;;
21281;SDS011;10800;53.096;18.328;2023-03-22T07:23:13;50.63;;;18.33;;
21281;SDS011;10800;53.096;18.328;2023-03-22T07:28:19;43.93;;;17.60;;
21281;SDS011;10800;53.096;18.328;2023-03-22T07:33:24;42.30;;;16.97;;
21281;SDS011;10800;53.096;18.328;2023-03-22T07:38:30;43.20;;;18.53;;
21281;SDS011;10800;53.096;18.328;2023-03-22T07:43:35;39.93;;;15.93;;
21281;SDS011;10800;53.096;18.328;2023-03-22T07:48:42;39.60;;;16.00;;
21281;SDS011;10800;53.096;18.328;2023-03-22T07:53:48;47.67;;;15.90;;
21281;SDS011;10800;53.096;18.328;2023-03-22T07:58:54;35.53;;;14.20;;
21281;SDS011;10800;53.096;18.328;2023-03-22T08:03:59;37.87;;;14.47;;
21281;SDS011;10800;53.096;18.328;2023-03-22T08:09:05;39.57;;;15.20;;
21281;SDS011;10800;53.096;18.328;2023-03-22T08:14:15;35.53;;;13.93;;
21281;SDS011;10800;53.096;18.328;2023-03-22T08:19:23;35.13;;;13.00;;
21281;SDS011;10800;53.096;18.328;2023-03-22T08:24:28;25.97;;;10.83;;
21281;SDS011;10800;53.096;18.328;2023-03-22T08:29:33;28.80;;;9.97;;
21281;SDS011;10800;53.096;18.328;2023-03-22T08:34:42;22.20;;;9.60;;
21281;SDS011;10800;53.096;18.328;2023-03-22T08:39:48;30.27;;;11.73;;
21281;SDS011;10800;53.096;18.328;2023-03-22T08:44:53;22.13;;;9.57;;
21281;SDS011;10800;53.096;18.328;2023-03-22T08:50:00;31.93;;;11.40;;
21281;SDS011;10800;53.096;18.328;2023-03-22T08:55:06;30.80;;;11.17;;
21281;SDS011;10800;53.096;18.328;2023-03-22T09:00:27;25.27;;;10.67;;
21281;SDS011;10800;53.096;18.328;2023-03-22T09:05:22;24.83;;;10.03;;
21281;SDS011;10800;53.096;18.328;2023-03-22T09:10:31;26.30;;;10.07;;
21281;SDS011;10800;53.096;18.328;2023-03-22T09:15:36;26.60;;;10.03;;
21281;SDS011;10800;53.096;18.328;2023-03-22T09:20:43;24.87;;;9.43;;
21281;SDS011;10800;53.096;18.328;2023-03-22T09:25:49;23.27;;;10.20;;
21281;SDS011;10800;53.096;18.328;2023-03-22T09:31:05;25.57;;;10.13;;
21281;SDS011;10800;53.096;18.328;2023-03-22T09:36:13;26.00;;;10.93;;
21281;SDS011;10800;53.096;18.328;2023-03-22T09:41:23;29.33;;;11.13;;
21281;SDS011;10800;53.096;18.328;2023-03-22T09:46:38;30.97;;;10.97;;
21281;SDS011;10800;53.096;18.328;2023-03-22T09:56:57;30.83;;;11.20;;
21281;SDS011;10800;53.096;18.328;2023-03-22T10:02:03;25.10;;;9.70;;
21281;SDS011;10800;53.096;18.328;2023-03-22T10:07:30;20.70;;;9.13;;
21281;SDS011;10800;53.096;18.328;2023-03-22T10:12:39;19.50;;;8.63;;
21281;SDS011;10800;53.096;18.328;2023-03-22T10:17:45;25.30;;;8.77;;
21281;SDS011;10800;53.096;18.328;2023-03-22T10:22:56;18.57;;;7.63;;
21281;SDS011;10800;53.096;18.328;2023-03-22T10:28:15;25.87;;;9.53;;
21281;SDS011;10800;53.096;18.328;2023-03-22T10:38:39;22.87;;;9.33;;
21281;SDS011;10800;53.096;18.328;2023-03-22T10:43:47;18.57;;;6.93;;
21281;SDS011;10800;53.096;18.328;2023-03-22T10:48:55;16.77;;;7.03;;
21281;SDS011;10800;53.096;18.328;2023-03-22T10:54:02;21.87;;;8.20;;
21281;SDS011;10800;53.096;18.328;2023-03-22T10:59:14;20.60;;;9.20;;
21281;SDS011;10800;53.096;18.328;2023-03-22T11:04:33;15.30;;;7.33;;
21281;SDS011;10800;53.096;18.328;2023-03-22T11:09:40;25.33;;;8.40;;
21281;SDS011;10800;53.096;18.328;2023-03-22T11:14:46;14.77;;;7.30;;
21281;SDS011;10800;53.096;18.328;2023-03-22T11:19:54;17.50;;;8.43;;
21281;SDS011;10800;53.096;18.328;2023-03-22T11:25:06;26.20;;;9.73;;
21281;SDS011;10800;53.096;18.328;2023-03-22T11:30:23;16.67;;;8.70;;
21281;SDS011;10800;53.096;18.328;2023-03-22T11:35:43;15.27;;;7.57;;
21281;SDS011;10800;53.096;18.328;2023-03-22T11:41:26;14.47;;;6.67;;
21281;SDS011;10800;53.096;18.328;2023-03-22T11:46:33;18.30;;;7.93;;
21281;SDS011;10800;53.096;18.328;2023-03-22T11:51:40;17.73;;;9.93;;
21281;SDS011;10800;53.096;18.328;2023-03-22T11:56:47;13.83;;;7.70;;
21281;SDS011;10800;53.096;18.328;2023-03-22T12:02:03;16.30;;;8.33;;
21281;SDS011;10800;53.096;18.328;2023-03-22T12:07:31;20.53;;;9.30;;
21281;SDS011;10800;53.096;18.328;2023-03-22T12:12:41;18.03;;;9.30;;
21281;SDS011;10800;53.096;18.328;2023-03-22T12:22:54;11.03;;;7.03;;
21281;SDS011;10800;53.096;18.328;2023-03-22T12:28:03;17.00;;;8.37;;
21281;SDS011;10800;53.096;18.328;2023-03-22T12:33:26;16.57;;;8.37;;
21281;SDS011;10800;53.096;18.328;2023-03-22T12:38:38;14.77;;;7.97;;
21281;SDS011;10800;53.096;18.328;2023-03-22T12:44:22;12.57;;;7.40;;
21281;SDS011;10800;53.096;18.328;2023-03-22T12:49:35;14.50;;;7.90;;
21281;SDS011;10800;53.096;18.328;2023-03-22T13:00:04;11.97;;;6.80;;
21281;SDS011;10800;53.096;18.328;2023-03-22T13:05:11;12.80;;;7.37;;
21281;SDS011;10800;53.096;18.328;2023-03-22T13:15:39;13.33;;;7.13;;
21281;SDS011;10800;53.096;18.328;2023-03-22T13:21:20;18.17;;;6.70;;
21281;SDS011;10800;53.096;18.328;2023-03-22T13:26:42;11.00;;;6.23;;
21281;SDS011;10800;53.096;18.328;2023-03-22T13:37:01;14.73;;;7.73;;
21281;SDS011;10800;53.096;18.328;2023-03-22T13:42:15;11.30;;;7.23;;
21281;SDS011;10800;53.096;18.328;2023-03-22T13:47:30;13.17;;;7.37;;
21281;SDS011;10800;53.096;18.328;2023-03-22T13:52:42;12.13;;;5.57;;
21281;SDS011;10800;53.096;18.328;2023-03-22T13:57:57;15.30;;;6.97;;
21281;SDS011;10800;53.096;18.328;2023-03-22T14:03:11;11.77;;;6.40;;
21281;SDS011;10800;53.096;18.328;2023-03-22T14:08:23;16.60;;;6.73;;
21281;SDS011;10800;53.096;18.328;2023-03-22T14:13:28;12.97;;;6.90;;
21281;SDS011;10800;53.096;18.328;2023-03-22T14:23:57;12.37;;;6.33;;
21281;SDS011;10800;53.096;18.328;2023-03-22T14:29:08;21.57;;;8.30;;
21281;SDS011;10800;53.096;18.328;2023-03-22T14:34:15;14.03;;;6.50;;
21281;SDS011;10800;53.096;18.328;2023-03-22T14:39:21;15.77;;;7.87;;
21281;SDS011;10800;53.096;18.328;2023-03-22T14:44:29;11.63;;;7.50;;
21281;SDS011;10800;53.096;18.328;2023-03-22T14:49:39;13.87;;;7.13;;
21281;SDS011;10800;53.096;18.328;2023-03-22T14:54:48;10.27;;;5.70;;
21281;SDS011;10800;53.096;18.328;2023-03-22T14:59:55;10.43;;;6.97;;
21281;SDS011;10800;53.096;18.328;2023-03-22T15:05:08;18.57;;;7.20;;
21281;SDS011;10800;53.096;18.328;2023-03-22T15:10:19;9.77;;;6.07;;
21281;SDS011;10800;53.096;18.328;2023-03-22T15:15:28;22.60;;;6.90;;
21281;SDS011;10800;53.096;18.328;2023-03-22T15:20:31;12.13;;;7.20;;
21281;SDS011;10800;53.096;18.328;2023-03-22T15:25:40;13.67;;;6.50;;
21281;SDS011;10800;53.096;18.328;2023-03-22T15:30:50;13.60;;;7.20;;
21281;SDS011;10800;53.096;18.328;2023-03-22T15:35:55;12.43;;;7.20;;
21281;SDS011;10800;53.096;18.328;2023-03-22T15:40:59;10.97;;;6.10;;
21281;SDS011;10800;53.096;18.328;2023-03-22T15:51:18;16.17;;;6.87;;
21281;SDS011;10800;53.096;18.328;2023-03-22T15:56:32;12.13;;;6.67;;
21281;SDS011;10800;53.096;18.328;2023-03-22T16:01:44;15.63;;;6.50;;
21281;SDS011;10800;53.096;18.328;2023-03-22T16:06:48;28.47;;;10.57;;
21281;SDS011;10800;53.096;18.328;2023-03-22T16:11:53;20.53;;;9.73;;
21281;SDS011;10800;53.096;18.328;2023-03-22T16:16:57;35.97;;;14.30;;
21281;SDS011;10800;53.096;18.328;2023-03-22T16:22:02;20.33;;;8.60;;
21281;SDS011;10800;53.096;18.328;2023-03-22T16:27:10;15.57;;;8.40;;
21281;SDS011;10800;53.096;18.328;2023-03-22T16:32:16;36.23;;;11.50;;
21281;SDS011;10800;53.096;18.328;2023-03-22T16:37:23;40.10;;;12.30;;
21281;SDS011;10800;53.096;18.328;2023-03-22T16:42:28;41.10;;;12.23;;
21281;SDS011;10800;53.096;18.328;2023-03-22T16:47:32;31.20;;;11.57;;
21281;SDS011;10800;53.096;18.328;2023-03-22T16:52:36;30.67;;;11.67;;
21281;SDS011;10800;53.096;18.328;2023-03-22T16:57:43;21.13;;;9.40;;
21281;SDS011;10800;53.096;18.328;2023-03-22T17:02:49;14.27;;;8.23;;
21281;SDS011;10800;53.096;18.328;2023-03-22T17:07:59;17.40;;;8.90;;
21281;SDS011;10800;53.096;18.328;2023-03-22T17:13:04;52.77;;;14.57;;
21281;SDS011;10800;53.096;18.328;2023-03-22T17:18:08;42.83;;;15.33;;
21281;SDS011;10800;53.096;18.328;2023-03-22T17:23:13;55.23;;;19.27;;
21281;SDS011;10800;53.096;18.328;2023-03-22T17:28:17;60.03;;;17.60;;
21281;SDS011;10800;53.096;18.328;2023-03-22T17:33:23;22.57;;;10.30;;
21281;SDS011;10800;53.096;18.328;2023-03-22T17:38:27;15.03;;;8.23;;
21281;SDS011;10800;53.096;18.328;2023-03-22T17:43:32;12.03;;;7.30;;
21281;SDS011;10800;53.096;18.328;2023-03-22T17:48:36;14.40;;;8.37;;
21281;SDS011;10800;53.096;18.328;2023-03-22T17:53:44;12.83;;;6.90;;
21281;SDS011;10800;53.096;18.328;2023-03-22T17:58:48;15.63;;;7.43;;
21281;SDS011;10800;53.096;18.328;2023-03-22T18:03:53;15.90;;;7.67;;
21281;SDS011;10800;53.096;18.328;2023-03-22T18:08:57;15.27;;;8.37;;
21281;SDS011;10800;53.096;18.328;2023-03-22T18:14:01;17.60;;;9.47;;
21281;SDS011;10800;53.096;18.328;2023-03-22T18:19:06;18.37;;;10.33;;
21281;SDS011;10800;53.096;18.328;2023-03-22T18:24:11;17.30;;;9.53;;
21281;SDS011;10800;53.096;18.328;2023-03-22T18:29:15;17.37;;;8.73;;
21281;SDS011;10800;53.096;18.328;2023-03-22T18:34:19;25.47;;;9.90;;
21281;SDS011;10800;53.096;18.328;2023-03-22T18:39:23;14.80;;;7.70;;
21281;SDS011;10800;53.096;18.328;2023-03-22T18:44:28;16.17;;;8.60;;
21281;SDS011;10800;53.096;18.328;2023-03-22T18:49:32;20.80;;;9.43;;
21281;SDS011;10800;53.096;18.328;2023-03-22T18:54:38;16.53;;;8.53;;
21281;SDS011;10800;53.096;18.328;2023-03-22T18:59:42;19.37;;;9.50;;
21281;SDS011;10800;53.096;18.328;2023-03-22T19:04:46;19.73;;;9.70;;
21281;SDS011;10800;53.096;18.328;2023-03-22T19:09:56;32.63;;;11.57;;
21281;SDS011;10800;53.096;18.328;2023-03-22T19:14:59;26.93;;;9.90;;
21281;SDS011;10800;53.096;18.328;2023-03-22T19:20:03;20.33;;;9.57;;
21281;SDS011;10800;53.096;18.328;2023-03-22T19:25:10;23.80;;;10.73;;
21281;SDS011;10800;53.096;18.328;2023-03-22T19:30:14;17.07;;;8.57;;
21281;SDS011;10800;53.096;18.328;2023-03-22T19:35:18;28.37;;;11.80;;
21281;SDS011;10800;53.096;18.328;2023-03-22T19:40:23;24.10;;;9.87;;
21281;SDS011;10800;53.096;18.328;2023-03-22T19:45:27;18.87;;;9.97;;
21281;SDS011;10800;53.096;18.328;2023-03-22T19:50:31;24.53;;;10.97;;
21281;SDS011;10800;53.096;18.328;2023-03-22T19:55:37;24.90;;;11.67;;
21281;SDS011;10800;53.096;18.328;2023-03-22T20:00:42;31.27;;;11.43;;
21281;SDS011;10800;53.096;18.328;2023-03-22T20:05:46;33.47;;;14.53;;
21281;SDS011;10800;53.096;18.328;2023-03-22T20:10:50;28.00;;;13.23;;
21281;SDS011;10800;53.096;18.328;2023-03-22T20:15:54;34.50;;;13.83;;
21281;SDS011;10800;53.096;18.328;2023-03-22T20:20:59;48.43;;;16.73;;
21281;SDS011;10800;53.096;18.328;2023-03-22T20:26:04;48.43;;;16.77;;
21281;SDS011;10800;53.096;18.328;2023-03-22T20:31:09;40.10;;;16.57;;
21281;SDS011;10800;53.096;18.328;2023-03-22T20:36:15;39.57;;;14.40;;
21281;SDS011;10800;53.096;18.328;2023-03-22T20:41:19;30.83;;;10.60;;
21281;SDS011;10800;53.096;18.328;2023-03-22T20:46:24;24.27;;;12.43;;
21281;SDS011;10800;53.096;18.328;2023-03-22T20:51:28;32.77;;;11.20;;
21281;SDS011;10800;53.096;18.328;2023-03-22T20:56:34;23.90;;;10.97;;
21281;SDS011;10800;53.096;18.328;2023-03-22T21:01:38;21.10;;;10.60;;
21281;SDS011;10800;53.096;18.328;2023-03-22T21:06:44;22.67;;;10.20;;
21281;SDS011;10800;53.096;18.328;2023-03-22T21:11:50;23.90;;;11.73;;
21281;SDS011;10800;53.096;18.328;2023-03-22T21:16:54;30.93;;;11.53;;
21281;SDS011;10800;53.096;18.328;2023-03-22T21:21:59;35.57;;;14.63;;
21281;SDS011;10800;53.096;18.328;2023-03-22T21:27:04;33.07;;;13.60;;
21281;SDS011;10800;53.096;18.328;2023-03-22T21:32:09;34.90;;;13.63;;
21281;SDS011;10800;53.096;18.328;2023-03-22T21:37:13;44.50;;;14.90;;
21281;SDS011;10800;53.096;18.328;2023-03-22T21:42:24;30.53;;;14.27;;
21281;SDS011;10800;53.096;18.328;2023-03-22T21:47:25;34.77;;;13.97;;
21281;SDS011;10800;53.096;18.328;2023-03-22T21:52:31;27.80;;;12.83;;
21281;SDS011;10800;53.096;18.328;2023-03-22T21:57:37;25.00;;;13.27;;
21281;SDS011;10800;53.096;18.328;2023-03-22T22:02:41;29.13;;;12.60;;
21281;SDS011;10800;53.096;18.328;2023-03-22T22:07:46;42.87;;;15.13;;
21281;SDS011;10800;53.096;18.328;2023-03-22T22:12:50;38.17;;;15.10;;
21281;SDS011;10800;53.096;18.328;2023-03-22T22:17:56;41.40;;;14.90;;
21281;SDS011;10800;53.096;18.328;2023-03-22T22:23:00;52.40;;;17.27;;
21281;SDS011;10800;53.096;18.328;2023-03-22T22:28:05;47.27;;;16.20;;
21281;SDS011;10800;53.096;18.328;2023-03-22T22:33:09;41.20;;;14.47;;
21281;SDS011;10800;53.096;18.328;2023-03-22T22:38:13;59.87;;;15.50;;
21281;SDS011;10800;53.096;18.328;2023-03-22T22:43:18;29.47;;;12.17;;
21281;SDS011;10800;53.096;18.328;2023-03-22T22:48:22;25.90;;;11.17;;
21281;SDS011;10800;53.096;18.328;2023-03-22T22:53:27;24.87;;;10.33;;
21281;SDS011;10800;53.096;18.328;2023-03-22T22:58:31;23.23;;;11.20;;
21281;SDS011;10800;53.096;18.328;2023-03-22T23:03:37;28.40;;;11.27;;
21281;SDS011;10800;53.096;18.328;2023-03-22T23:08:43;23.70;;;10.93;;
21281;SDS011;10800;53.096;18.328;2023-03-22T23:13:47;24.40;;;11.27;;
21281;SDS011;10800;53.096;18.328;2023-03-22T23:18:52;31.07;;;13.57;;
21281;SDS011;10800;53.096;18.328;2023-03-22T23:23:57;20.83;;;9.97;;
21281;SDS011;10800;53.096;18.328;2023-03-22T23:29:02;38.00;;;12.47;;
21281;SDS011;10800;53.096;18.328;2023-03-22T23:34:07;30.63;;;12.73;;
21281;SDS011;10800;53.096;18.328;2023-03-22T23:39:12;29.83;;;13.23;;
21281;SDS011;10800;53.096;18.328;2023-03-22T23:44:16;27.30;;;12.50;;
21281;SDS011;10800;53.096;18.328;2023-03-22T23:49:22;29.13;;;12.10;;
21281;SDS011;10800;53.096;18.328;2023-03-22T23:54:26;32.63;;;13.10;;
21281;SDS011;10800;53.096;18.328;2023-03-22T23:59:31;26.37;;;10.57;;
